createdAt,value
2016-11-03T00:00:41.285Z,0
2016-11-03T00:01:40.898Z,0
2016-11-03T00:02:40.900Z,0
2016-11-03T00:03:41.127Z,0
2016-11-03T00:04:41.092Z,0
2016-11-03T00:05:40.441Z,0
2016-11-03T00:06:40.400Z,0
2016-11-03T00:07:40.662Z,0
2016-11-03T00:08:40.934Z,0
2016-11-03T00:09:40.320Z,0
2016-11-03T00:10:40.257Z,0
2016-11-03T00:11:40.209Z,0
2016-11-03T00:12:40.772Z,0
2016-11-03T00:13:40.435Z,0
2016-11-03T00:14:40.699Z,0
2016-11-03T00:15:40.661Z,0
2016-11-03T00:16:40.337Z,0
2016-11-03T00:17:40.279Z,0
2016-11-03T00:18:40.238Z,0
2016-11-03T00:19:40.210Z,0
2016-11-03T00:20:40.158Z,0
2016-11-03T00:21:40.122Z,0
2016-11-03T00:22:40.393Z,0
2016-11-03T00:23:40.345Z,0
2016-11-03T00:24:40.002Z,0
2016-11-03T00:25:40.269Z,0
2016-11-03T00:26:39.941Z,0
2016-11-03T00:27:39.917Z,0
2016-11-03T00:28:39.554Z,0
2016-11-03T00:29:40.117Z,0
2016-11-03T00:30:39.464Z,0
2016-11-03T00:31:39.431Z,0
2016-11-03T00:32:39.690Z,0
2016-11-03T00:33:39.653Z,0
2016-11-03T00:34:39.938Z,0
2016-11-03T00:35:39.266Z,0
2016-11-03T00:36:39.263Z,0
2016-11-03T00:37:39.507Z,0
2016-11-03T00:38:39.756Z,0
2016-11-03T00:39:39.724Z,0
2016-11-03T00:40:39.379Z,0
2016-11-03T00:41:39.038Z,0
2016-11-03T00:42:39.597Z,0
2016-11-03T00:43:39.593Z,0
2016-11-03T00:44:39.222Z,0
2016-11-03T00:45:39.499Z,0
2016-11-03T00:46:39.438Z,0
2016-11-03T00:47:39.402Z,0
2016-11-03T00:48:39.064Z,0
2016-11-03T00:49:39.328Z,0
2016-11-03T00:50:39.032Z,0
2016-11-03T00:51:39.251Z,0
2016-11-03T00:52:38.909Z,0
2016-11-03T00:53:38.907Z,0
2016-11-03T00:54:38.834Z,0
2016-11-03T00:55:39.094Z,0
2016-11-03T00:56:39.055Z,0
2016-11-03T00:57:38.406Z,0
2016-11-03T00:58:38.071Z,0
2016-11-03T00:59:38.936Z,0
2016-11-03T01:00:37.993Z,0
2016-11-03T01:01:38.860Z,0
2016-11-03T01:02:38.253Z,0
2016-11-03T01:03:38.479Z,0
2016-11-03T01:04:38.734Z,0
2016-11-03T01:05:38.400Z,0
2016-11-03T01:06:38.065Z,0
2016-11-03T01:07:38.628Z,0
2016-11-03T01:08:38.319Z,0
2016-11-03T01:09:38.544Z,0
2016-11-03T01:10:37.602Z,0
2016-11-03T01:11:37.858Z,0
2016-11-03T01:12:38.430Z,0
2016-11-03T01:13:38.089Z,0
2016-11-03T01:14:38.348Z,0
2016-11-03T01:15:38.314Z,0
2016-11-03T01:16:38.284Z,0
2016-11-03T01:17:37.936Z,0
2016-11-03T01:18:38.199Z,0
2016-11-03T01:19:37.544Z,0
2016-11-03T01:20:37.808Z,0
2016-11-03T01:21:37.817Z,0
2016-11-03T01:22:38.028Z,0
2016-11-03T01:23:37.994Z,0
2016-11-03T01:24:37.652Z,0
2016-11-03T01:25:37.622Z,0
2016-11-03T01:26:37.876Z,0
2016-11-03T01:27:37.545Z,0
2016-11-03T01:28:37.497Z,0
2016-11-03T01:29:37.450Z,0
2016-11-03T01:30:37.719Z,0
2016-11-03T01:31:37.674Z,0
2016-11-03T01:32:37.636Z,0
2016-11-03T01:33:36.999Z,0
2016-11-03T01:34:37.559Z,0
2016-11-03T01:35:37.222Z,0
2016-11-03T01:36:37.480Z,0
2016-11-03T01:37:36.841Z,0
2016-11-03T01:38:37.410Z,0
2016-11-03T01:39:37.370Z,0
2016-11-03T01:40:37.326Z,0
2016-11-03T01:41:36.992Z,0
2016-11-03T01:42:36.938Z,0
2016-11-03T01:43:37.207Z,0
2016-11-03T01:44:36.608Z,0
2016-11-03T01:45:37.135Z,0
2016-11-03T01:46:36.492Z,0
2016-11-03T01:47:37.052Z,0
2016-11-03T01:48:36.708Z,0
2016-11-03T01:49:36.383Z,0
2016-11-03T01:50:36.634Z,0
2016-11-03T01:51:36.900Z,0
2016-11-03T01:52:36.859Z,0
2016-11-03T01:53:36.521Z,0
2016-11-03T01:54:36.489Z,0
2016-11-03T01:55:36.138Z,0
2016-11-03T01:56:36.399Z,0
2016-11-03T01:57:35.755Z,0
2016-11-03T01:58:36.619Z,0
2016-11-03T01:59:36.579Z,0
2016-11-03T02:00:36.539Z,0
2016-11-03T02:01:36.502Z,0
2016-11-03T02:02:36.166Z,0
2016-11-03T02:03:36.425Z,0
2016-11-03T02:04:35.777Z,0
2016-11-03T02:05:36.040Z,0
2016-11-03T02:06:36.006Z,0
2016-11-03T02:07:36.304Z,0
2016-11-03T02:08:35.931Z,0
2016-11-03T02:09:36.193Z,0
2016-11-03T02:10:36.149Z,0
2016-11-03T02:11:35.809Z,0
2016-11-03T02:12:36.073Z,0
2016-11-03T02:13:35.732Z,0
2016-11-03T02:14:36.009Z,0
2016-11-03T02:15:35.963Z,0
2016-11-03T02:16:35.610Z,0
2016-11-03T02:17:35.579Z,0
2016-11-03T02:18:35.536Z,0
2016-11-03T02:19:35.491Z,0
2016-11-03T02:20:35.761Z,0
2016-11-03T02:21:35.717Z,0
2016-11-03T02:22:35.688Z,0
2016-11-03T02:23:35.339Z,0
2016-11-03T02:24:35.326Z,0
2016-11-03T02:25:35.553Z,0
2016-11-03T02:26:35.523Z,0
2016-11-03T02:27:35.481Z,0
2016-11-03T02:28:34.532Z,0
2016-11-03T02:29:35.400Z,0
2016-11-03T02:30:35.054Z,0
2016-11-03T02:31:35.035Z,0
2016-11-03T02:32:34.977Z,0
2016-11-03T02:33:34.935Z,0
2016-11-03T02:34:34.917Z,0
2016-11-03T02:35:35.169Z,0
2016-11-03T02:36:34.517Z,0
2016-11-03T02:37:34.483Z,0
2016-11-03T02:38:34.768Z,0
2016-11-03T02:39:34.411Z,0
2016-11-03T02:40:34.359Z,0
2016-11-03T02:41:34.627Z,0
2016-11-03T02:42:34.286Z,0
2016-11-03T02:43:34.240Z,0
2016-11-03T02:44:34.504Z,0
2016-11-03T02:45:33.880Z,0
2016-11-03T02:46:34.730Z,0
2016-11-03T02:47:34.688Z,0
2016-11-03T02:48:34.653Z,0
2016-11-03T02:49:34.343Z,0
2016-11-03T02:50:33.970Z,0
2016-11-03T02:51:34.229Z,0
2016-11-03T02:52:33.924Z,0
2016-11-03T02:53:33.851Z,0
2016-11-03T02:54:34.426Z,0
2016-11-03T02:55:34.416Z,0
2016-11-03T02:56:34.370Z,0
2016-11-03T02:57:34.294Z,0
2016-11-03T02:58:34.259Z,0
2016-11-03T02:59:33.918Z,0
2016-11-03T03:00:33.571Z,0
2016-11-03T03:01:33.859Z,0
2016-11-03T03:02:33.499Z,0
2016-11-03T03:03:33.790Z,0
2016-11-03T03:04:34.030Z,0
2016-11-03T03:05:33.688Z,0
2016-11-03T03:06:33.340Z,0
2016-11-03T03:07:33.900Z,0
2016-11-03T03:08:33.867Z,0
2016-11-03T03:09:33.222Z,0
2016-11-03T03:10:33.516Z,0
2016-11-03T03:11:33.439Z,0
2016-11-03T03:12:33.404Z,0
2016-11-03T03:13:33.664Z,0
2016-11-03T03:14:33.628Z,0
2016-11-03T03:15:33.583Z,0
2016-11-03T03:16:33.542Z,0
2016-11-03T03:17:33.205Z,0
2016-11-03T03:18:33.462Z,0
2016-11-03T03:19:33.130Z,0
2016-11-03T03:20:32.788Z,0
2016-11-03T03:21:33.384Z,0
2016-11-03T03:22:33.298Z,0
2016-11-03T03:23:33.263Z,0
2016-11-03T03:24:32.932Z,0
2016-11-03T03:25:32.885Z,0
2016-11-03T03:26:33.140Z,0
2016-11-03T03:27:33.112Z,0
2016-11-03T03:28:33.073Z,0
2016-11-03T03:29:32.728Z,0
2016-11-03T03:30:32.381Z,0
2016-11-03T03:31:32.647Z,0
2016-11-03T03:32:32.645Z,0
2016-11-03T03:33:32.865Z,0
2016-11-03T03:34:32.528Z,0
2016-11-03T03:35:32.186Z,0
2016-11-03T03:36:32.746Z,0
2016-11-03T03:37:32.105Z,0
2016-11-03T03:38:32.071Z,0
2016-11-03T03:39:32.331Z,0
2016-11-03T03:40:32.589Z,0
2016-11-03T03:41:32.556Z,0
2016-11-03T03:42:31.906Z,0
2016-11-03T03:43:32.169Z,0
2016-11-03T03:44:32.120Z,0
2016-11-03T03:45:32.124Z,0
2016-11-03T03:46:32.344Z,0
2016-11-03T03:47:32.007Z,0
2016-11-03T03:48:31.358Z,0
2016-11-03T03:49:31.629Z,0
2016-11-03T03:50:31.586Z,0
2016-11-03T03:51:31.842Z,0
2016-11-03T03:52:32.110Z,0
2016-11-03T03:53:32.065Z,0
2016-11-03T03:54:31.726Z,0
2016-11-03T03:55:31.995Z,0
2016-11-03T03:56:31.948Z,0
2016-11-03T03:57:31.604Z,0
2016-11-03T03:58:31.261Z,0
2016-11-03T03:59:31.538Z,0
2016-11-03T04:00:31.792Z,0
2016-11-03T04:01:31.741Z,0
2016-11-03T04:02:31.400Z,0
2016-11-03T04:03:31.656Z,0
2016-11-03T04:04:31.325Z,0
2016-11-03T04:05:31.277Z,0
2016-11-03T04:06:31.239Z,0
2016-11-03T04:07:31.212Z,0
2016-11-03T04:08:31.465Z,0
2016-11-03T04:09:30.817Z,0
2016-11-03T04:10:31.377Z,0
2016-11-03T04:11:31.033Z,0
2016-11-03T04:12:30.994Z,0
2016-11-03T04:13:31.253Z,0
2016-11-03T04:14:30.613Z,0
2016-11-03T04:15:31.183Z,0
2016-11-03T04:16:30.532Z,0
2016-11-03T04:17:30.789Z,0
2016-11-03T04:18:31.056Z,0
2016-11-03T04:19:30.714Z,0
2016-11-03T04:20:30.985Z,0
2016-11-03T04:21:30.927Z,0
2016-11-03T04:22:30.892Z,0
2016-11-03T04:23:29.951Z,0
2016-11-03T04:24:30.812Z,0
2016-11-03T04:25:30.770Z,0
2016-11-03T04:26:30.732Z,0
2016-11-03T04:27:30.383Z,0
2016-11-03T04:28:30.370Z,0
2016-11-03T04:29:30.601Z,0
2016-11-03T04:30:30.567Z,0
2016-11-03T04:31:30.527Z,0
2016-11-03T04:32:29.874Z,0
2016-11-03T04:33:30.138Z,0
2016-11-03T04:34:30.406Z,0
2016-11-03T04:35:29.799Z,0
2016-11-03T04:36:30.322Z,0
2016-11-03T04:37:29.374Z,0
2016-11-03T04:38:29.938Z,0
2016-11-03T04:39:29.900Z,0
2016-11-03T04:40:30.158Z,0
2016-11-03T04:41:29.869Z,0
2016-11-03T04:42:29.468Z,0
2016-11-03T04:43:29.737Z,0
2016-11-03T04:44:29.691Z,0
2016-11-03T04:45:29.951Z,0
2016-11-03T04:46:29.609Z,0
2016-11-03T04:47:29.570Z,0
2016-11-03T04:48:29.528Z,0
2016-11-03T04:49:29.486Z,0
2016-11-03T04:50:29.749Z,0
2016-11-03T04:51:29.134Z,0
2016-11-03T04:52:29.057Z,0
2016-11-03T04:53:29.024Z,0
2016-11-03T04:54:29.276Z,0
2016-11-03T04:55:29.239Z,0
2016-11-03T04:56:29.209Z,0
2016-11-03T04:57:29.154Z,0
2016-11-03T04:58:29.419Z,0
2016-11-03T04:59:29.076Z,0
2016-11-03T05:00:28.739Z,0
2016-11-03T05:01:28.982Z,0
2016-11-03T05:02:29.285Z,0
2016-11-03T05:03:28.946Z,0
2016-11-03T05:04:29.172Z,0
2016-11-03T05:05:28.827Z,0
2016-11-03T05:06:29.091Z,0
2016-11-03T05:07:29.047Z,0
2016-11-03T05:08:29.006Z,0
2016-11-03T05:09:28.661Z,0
2016-11-03T05:10:28.322Z,0
2016-11-03T05:11:28.581Z,0
2016-11-03T05:12:28.543Z,0
2016-11-03T05:13:28.814Z,0
2016-11-03T05:14:28.455Z,0
2016-11-03T05:15:28.716Z,0
2016-11-03T05:16:28.689Z,0
2016-11-03T05:17:28.631Z,0
2016-11-03T05:18:27.994Z,0
2016-11-03T05:19:28.570Z,0
2016-11-03T05:20:28.210Z,0
2016-11-03T05:21:28.168Z,0
2016-11-03T05:22:28.162Z,0
2016-11-03T05:23:28.383Z,0
2016-11-03T05:24:27.740Z,0
2016-11-03T05:25:28.003Z,0
2016-11-03T05:26:27.959Z,0
2016-11-03T05:27:27.951Z,0
2016-11-03T05:28:27.879Z,0
2016-11-03T05:29:28.140Z,0
2016-11-03T05:30:28.098Z,0
2016-11-03T05:31:28.053Z,0
2016-11-03T05:32:27.102Z,0
2016-11-03T05:33:27.676Z,0
2016-11-03T05:34:27.958Z,0
2016-11-03T05:35:27.285Z,0
2016-11-03T05:36:27.548Z,0
2016-11-03T05:37:27.816Z,0
2016-11-03T05:38:27.161Z,0
2016-11-03T05:39:27.728Z,0
2016-11-03T05:40:27.378Z,0
2016-11-03T05:41:27.636Z,0
2016-11-03T05:42:26.989Z,0
2016-11-03T05:43:27.253Z,0
2016-11-03T05:44:27.212Z,0
2016-11-03T05:45:27.481Z,0
2016-11-03T05:46:27.129Z,0
2016-11-03T05:47:27.087Z,0
2016-11-03T05:48:27.084Z,0
2016-11-03T05:49:27.035Z,0
2016-11-03T05:50:26.991Z,0
2016-11-03T05:51:27.238Z,0
2016-11-03T05:52:27.183Z,0
2016-11-03T05:53:26.842Z,0
2016-11-03T05:54:27.101Z,0
2016-11-03T05:55:26.455Z,0
2016-11-03T05:56:26.415Z,0
2016-11-03T05:57:26.674Z,0
2016-11-03T05:58:26.631Z,0
2016-11-03T05:59:26.590Z,0
2016-11-03T06:00:26.843Z,0
2016-11-03T06:01:26.812Z,5
2016-11-03T06:02:26.505Z,5
2016-11-03T06:03:26.759Z,5
2016-11-03T06:04:26.376Z,5
2016-11-03T06:05:26.041Z,5
2016-11-03T06:06:26.607Z,5
2016-11-03T06:07:26.265Z,5
2016-11-03T06:08:26.217Z,10
2016-11-03T06:09:26.479Z,10
2016-11-03T06:10:26.433Z,10
2016-11-03T06:11:26.123Z,10
2016-11-03T06:12:26.051Z,10
2016-11-03T06:13:26.010Z,15
2016-11-03T06:14:25.968Z,15
2016-11-03T06:15:26.227Z,15
2016-11-03T06:16:26.319Z,15
2016-11-03T06:17:25.838Z,20
2016-11-03T06:18:25.798Z,20
2016-11-03T06:19:25.788Z,20
2016-11-03T06:20:25.420Z,25
2016-11-03T06:21:25.671Z,25
2016-11-03T06:22:25.330Z,30
2016-11-03T06:23:25.592Z,30
2016-11-03T06:24:25.846Z,30
2016-11-03T06:25:25.535Z,35
2016-11-03T06:26:25.465Z,40
2016-11-03T06:27:25.423Z,45
2016-11-03T06:28:25.380Z,65
2016-11-03T06:29:25.342Z,80
2016-11-03T06:30:25.596Z,90
2016-11-03T06:31:24.955Z,100
2016-11-03T06:32:25.217Z,105
2016-11-03T06:33:25.173Z,115
2016-11-03T06:34:25.439Z,120
2016-11-03T06:35:25.391Z,125
2016-11-03T06:36:25.352Z,135
2016-11-03T06:37:25.314Z,145
2016-11-03T06:38:25.276Z,155
2016-11-03T06:39:24.920Z,150
2016-11-03T06:40:25.192Z,155
2016-11-03T06:41:24.844Z,170
2016-11-03T06:42:24.509Z,175
2016-11-03T06:43:24.457Z,195
2016-11-03T06:44:24.719Z,210
2016-11-03T06:45:24.979Z,215
2016-11-03T06:46:24.946Z,220
2016-11-03T06:47:24.298Z,240
2016-11-03T06:48:24.858Z,250
2016-11-03T06:49:23.615Z,255
2016-11-03T06:50:24.486Z,260
2016-11-03T06:51:24.142Z,265
2016-11-03T06:52:23.802Z,300
2016-11-03T06:53:24.672Z,285
2016-11-03T06:54:24.626Z,295
2016-11-03T06:55:24.585Z,305
2016-11-03T06:56:23.970Z,320
2016-11-03T06:57:23.902Z,330
2016-11-03T06:58:24.161Z,340
2016-11-03T06:59:24.135Z,355
2016-11-03T07:00:24.091Z,375
2016-11-03T07:01:24.051Z,375
2016-11-03T07:02:24.311Z,380
2016-11-03T07:03:24.309Z,385
2016-11-03T07:04:23.943Z,395
2016-11-03T07:05:24.204Z,400
2016-11-03T07:06:23.858Z,410
2016-11-03T07:07:23.523Z,405
2016-11-03T07:08:23.793Z,400
2016-11-03T07:09:24.082Z,425
2016-11-03T07:10:23.411Z,460
2016-11-03T07:11:23.984Z,500
2016-11-03T07:12:23.935Z,520
2016-11-03T07:13:23.903Z,535
2016-11-03T07:14:23.871Z,535
2016-11-03T07:15:23.832Z,545
2016-11-03T07:16:23.490Z,555
2016-11-03T07:17:23.157Z,560
2016-11-03T07:18:23.125Z,565
2016-11-03T07:19:23.690Z,585
2016-11-03T07:20:23.053Z,600
2016-11-03T07:21:23.022Z,610
2016-11-03T07:22:23.293Z,625
2016-11-03T07:23:23.248Z,625
2016-11-03T07:24:22.911Z,635
2016-11-03T07:25:23.514Z,650
2016-11-03T07:26:23.455Z,665
2016-11-03T07:27:23.449Z,675
2016-11-03T07:28:22.778Z,690
2016-11-03T07:29:23.353Z,705
2016-11-03T07:30:23.320Z,705
2016-11-03T07:31:22.408Z,710
2016-11-03T07:32:22.649Z,725
2016-11-03T07:33:23.219Z,735
2016-11-03T07:34:22.585Z,745
2016-11-03T07:35:22.851Z,760
2016-11-03T07:36:23.124Z,765
2016-11-03T07:37:22.787Z,775
2016-11-03T07:38:22.754Z,780
2016-11-03T07:39:23.025Z,795
2016-11-03T07:40:23.015Z,810
2016-11-03T07:41:22.965Z,810
2016-11-03T07:42:22.642Z,815
2016-11-03T07:43:22.594Z,835
2016-11-03T07:44:22.871Z,840
2016-11-03T07:45:22.535Z,845
2016-11-03T07:46:22.536Z,860
2016-11-03T07:47:22.178Z,875
2016-11-03T07:48:22.178Z,885
2016-11-03T07:49:22.728Z,890
2016-11-03T07:50:22.389Z,895
2016-11-03T07:51:21.752Z,910
2016-11-03T07:52:22.673Z,920
2016-11-03T07:53:22.594Z,925
2016-11-03T07:54:21.968Z,935
2016-11-03T07:55:22.541Z,945
2016-11-03T07:56:21.907Z,950
2016-11-03T07:57:22.183Z,970
2016-11-03T07:58:21.852Z,985
2016-11-03T07:59:22.126Z,980
2016-11-03T08:00:22.395Z,990
2016-11-03T08:01:21.762Z,975
2016-11-03T08:02:22.032Z,960
2016-11-03T08:03:21.407Z,975
2016-11-03T08:04:22.000Z,1015
2016-11-03T08:05:21.948Z,1050
2016-11-03T08:06:22.227Z,1065
2016-11-03T08:07:22.207Z,1090
2016-11-03T08:08:21.873Z,1105
2016-11-03T08:09:21.536Z,1135
2016-11-03T08:10:22.115Z,1140
2016-11-03T08:11:22.092Z,1135
2016-11-03T08:12:21.749Z,1115
2016-11-03T08:13:21.731Z,1105
2016-11-03T08:14:21.400Z,1095
2016-11-03T08:15:22.010Z,1100
2016-11-03T08:16:21.368Z,1090
2016-11-03T08:17:21.680Z,1090
2016-11-03T08:18:21.600Z,1095
2016-11-03T08:19:21.595Z,1070
2016-11-03T08:20:21.537Z,1025
2016-11-03T08:21:21.810Z,995
2016-11-03T08:22:21.182Z,1000
2016-11-03T08:23:21.473Z,1005
2016-11-03T08:24:21.738Z,990
2016-11-03T08:25:21.450Z,980
2016-11-03T08:26:21.376Z,970
2016-11-03T08:27:21.349Z,980
2016-11-03T08:28:21.054Z,995
2016-11-03T08:29:21.298Z,1010
2016-11-03T08:30:20.965Z,990
2016-11-03T08:31:20.978Z,985
2016-11-03T08:32:21.251Z,980
2016-11-03T08:33:21.493Z,960
2016-11-03T08:34:21.473Z,960
2016-11-03T08:35:21.146Z,960
2016-11-03T08:36:21.110Z,960
2016-11-03T08:37:21.391Z,955
2016-11-03T08:38:21.370Z,930
2016-11-03T08:39:21.337Z,900
2016-11-03T08:40:21.016Z,885
2016-11-03T08:41:20.991Z,880
2016-11-03T08:42:21.269Z,885
2016-11-03T08:43:20.934Z,905
2016-11-03T08:44:21.231Z,915
2016-11-03T08:45:21.187Z,930
2016-11-03T08:46:20.895Z,940
2016-11-03T08:47:21.141Z,950
2016-11-03T08:48:21.109Z,955
2016-11-03T08:49:21.087Z,945
2016-11-03T08:50:21.058Z,950
2016-11-03T08:51:21.033Z,955
2016-11-03T08:52:20.705Z,960
2016-11-03T08:53:20.979Z,965
2016-11-03T08:54:20.698Z,965
2016-11-03T08:55:20.930Z,965
2016-11-03T08:56:20.922Z,980
2016-11-03T08:57:20.584Z,980
2016-11-03T08:58:20.856Z,990
2016-11-03T08:59:20.529Z,995
2016-11-03T09:00:20.511Z,995
2016-11-03T09:01:20.784Z,985
2016-11-03T09:02:20.458Z,1000
2016-11-03T09:03:20.740Z,1000
2016-11-03T09:04:20.441Z,1015
2016-11-03T09:05:20.392Z,1030
2016-11-03T09:06:20.355Z,1030
2016-11-03T09:07:20.699Z,1020
2016-11-03T09:08:20.617Z,1005
2016-11-03T09:09:20.282Z,990
2016-11-03T09:10:20.293Z,990
2016-11-03T09:11:20.236Z,975
2016-11-03T09:12:20.214Z,970
2016-11-03T09:13:20.498Z,965
2016-11-03T09:14:20.164Z,965
2016-11-03T09:15:20.140Z,970
2016-11-03T09:16:20.429Z,980
2016-11-03T09:17:20.086Z,980
2016-11-03T09:18:20.065Z,980
2016-11-03T09:19:20.039Z,970
2016-11-03T09:20:20.318Z,960
2016-11-03T09:21:20.294Z,945
2016-11-03T09:22:20.273Z,940
2016-11-03T09:23:20.244Z,940
2016-11-03T09:24:19.623Z,930
2016-11-03T09:25:20.196Z,925
2016-11-03T09:26:19.881Z,925
2016-11-03T09:27:20.184Z,930
2016-11-03T09:28:20.157Z,930
2016-11-03T09:29:20.108Z,925
2016-11-03T09:30:19.776Z,925
2016-11-03T09:31:19.757Z,925
2016-11-03T09:32:20.033Z,925
2016-11-03T09:33:20.008Z,930
2016-11-03T09:34:19.988Z,935
2016-11-03T09:35:19.053Z,950
2016-11-03T09:36:19.331Z,1080
2016-11-03T09:37:19.609Z,1295
2016-11-03T09:38:19.898Z,1335
2016-11-03T09:39:19.612Z,1360
2016-11-03T09:40:19.560Z,1395
2016-11-03T09:41:19.819Z,1415
2016-11-03T09:42:19.491Z,1430
2016-11-03T09:43:19.787Z,1440
2016-11-03T09:44:19.751Z,1415
2016-11-03T09:45:19.730Z,1375
2016-11-03T09:46:19.406Z,1400
2016-11-03T09:47:19.071Z,1415
2016-11-03T09:48:19.651Z,1435
2016-11-03T09:49:19.019Z,1415
2016-11-03T09:50:19.618Z,1425
2016-11-03T09:51:19.612Z,1420
2016-11-03T09:52:19.615Z,1440
2016-11-03T09:53:19.535Z,1455
2016-11-03T09:54:19.511Z,1450
2016-11-03T09:55:19.223Z,1485
2016-11-03T09:56:19.161Z,1505
2016-11-03T09:57:19.441Z,1510
2016-11-03T09:58:19.415Z,1500
2016-11-03T09:59:19.387Z,1480
2016-11-03T10:00:19.374Z,1495
2016-11-03T10:01:19.042Z,1505
2016-11-03T10:02:18.715Z,1490
2016-11-03T10:03:19.311Z,1505
2016-11-03T10:04:19.278Z,1495
2016-11-03T10:05:19.248Z,1470
2016-11-03T10:06:19.226Z,1445
2016-11-03T10:07:19.202Z,1490
2016-11-03T10:08:18.873Z,1530
2016-11-03T10:09:18.850Z,1575
2016-11-03T10:10:19.119Z,1630
2016-11-03T10:11:19.101Z,1615
2016-11-03T10:12:18.789Z,1625
2016-11-03T10:13:18.755Z,1580
2016-11-03T10:14:19.064Z,1535
2016-11-03T10:15:18.704Z,1515
2016-11-03T10:16:18.678Z,1505
2016-11-03T10:17:18.046Z,1515
2016-11-03T10:18:18.929Z,1535
2016-11-03T10:19:18.719Z,1530
2016-11-03T10:20:18.576Z,1470
2016-11-03T10:21:18.862Z,1455
2016-11-03T10:22:18.524Z,1410
2016-11-03T10:23:18.809Z,1290
2016-11-03T10:24:18.775Z,1020
2016-11-03T10:25:18.755Z,830
2016-11-03T10:26:18.720Z,785
2016-11-03T10:27:18.703Z,775
2016-11-03T10:28:18.382Z,765
2016-11-03T10:29:18.687Z,750
2016-11-03T10:30:18.620Z,740
2016-11-03T10:31:17.995Z,735
2016-11-03T10:32:18.578Z,735
2016-11-03T10:33:18.541Z,730
2016-11-03T10:34:18.529Z,730
2016-11-03T10:35:18.196Z,730
2016-11-03T10:36:18.462Z,735
2016-11-03T10:37:18.138Z,735
2016-11-03T10:38:18.415Z,740
2016-11-03T10:39:18.394Z,740
2016-11-03T10:40:18.378Z,740
2016-11-03T10:41:18.343Z,745
2016-11-03T10:42:17.715Z,750
2016-11-03T10:43:18.299Z,750
2016-11-03T10:44:17.986Z,745
2016-11-03T10:45:17.940Z,735
2016-11-03T10:46:17.607Z,830
2016-11-03T10:47:18.185Z,1045
2016-11-03T10:48:18.156Z,1255
2016-11-03T10:49:18.126Z,1340
2016-11-03T10:50:18.106Z,1370
2016-11-03T10:51:17.785Z,1335
2016-11-03T10:52:18.062Z,1380
2016-11-03T10:53:17.721Z,1385
2016-11-03T10:54:18.006Z,1400
2016-11-03T10:55:17.671Z,1355
2016-11-03T10:56:17.645Z,1355
2016-11-03T10:57:17.328Z,1415
2016-11-03T10:58:17.896Z,1360
2016-11-03T10:59:17.864Z,1165
2016-11-03T11:00:17.842Z,765
2016-11-03T11:01:17.809Z,615
2016-11-03T11:02:17.797Z,595
2016-11-03T11:03:17.459Z,590
2016-11-03T11:04:17.765Z,590
2016-11-03T11:05:17.405Z,580
2016-11-03T11:06:17.372Z,585
2016-11-03T11:07:17.648Z,585
2016-11-03T11:08:17.617Z,570
2016-11-03T11:09:17.290Z,545
2016-11-03T11:10:17.560Z,535
2016-11-03T11:11:17.544Z,490
2016-11-03T11:12:17.513Z,450
2016-11-03T11:13:17.480Z,430
2016-11-03T11:14:17.448Z,475
2016-11-03T11:15:17.428Z,485
2016-11-03T11:16:16.809Z,945
2016-11-03T11:17:17.366Z,1710
2016-11-03T11:18:16.479Z,1885
2016-11-03T11:19:16.407Z,1480
2016-11-03T11:20:17.279Z,620
2016-11-03T11:21:16.948Z,355
2016-11-03T11:22:17.254Z,335
2016-11-03T11:23:16.582Z,335
2016-11-03T11:24:16.861Z,310
2016-11-03T11:25:16.835Z,290
2016-11-03T11:26:16.799Z,275
2016-11-03T11:27:17.070Z,265
2016-11-03T11:28:16.431Z,255
2016-11-03T11:29:17.006Z,250
2016-11-03T11:30:16.674Z,250
2016-11-03T11:31:16.980Z,245
2016-11-03T11:32:16.913Z,245
2016-11-03T11:33:16.884Z,240
2016-11-03T11:34:16.847Z,240
2016-11-03T11:35:16.218Z,240
2016-11-03T11:36:16.487Z,235
2016-11-03T11:37:16.761Z,235
2016-11-03T11:38:16.720Z,230
2016-11-03T11:39:16.388Z,230
2016-11-03T11:40:16.367Z,230
2016-11-03T11:41:16.621Z,225
2016-11-03T11:42:16.586Z,225
2016-11-03T11:43:16.248Z,225
2016-11-03T11:44:15.918Z,225
2016-11-03T11:45:16.496Z,225
2016-11-03T11:46:16.165Z,220
2016-11-03T11:47:16.429Z,215
2016-11-03T11:48:16.095Z,210
2016-11-03T11:49:16.049Z,200
2016-11-03T11:50:16.322Z,195
2016-11-03T11:51:15.995Z,190
2016-11-03T11:52:15.951Z,190
2016-11-03T11:53:15.915Z,185
2016-11-03T11:54:16.180Z,185
2016-11-03T11:55:16.146Z,185
2016-11-03T11:56:15.828Z,180
2016-11-03T11:57:15.779Z,180
2016-11-03T11:58:16.039Z,180
2016-11-03T11:59:15.726Z,180
2016-11-03T12:00:15.978Z,180
2016-11-03T12:01:15.664Z,180
2016-11-03T12:02:15.605Z,180
2016-11-03T12:03:15.884Z,180
2016-11-03T12:04:15.839Z,180
2016-11-03T12:05:15.495Z,185
2016-11-03T12:06:15.761Z,185
2016-11-03T12:07:15.726Z,185
2016-11-03T12:08:15.689Z,185
2016-11-03T12:09:15.362Z,185
2016-11-03T12:10:15.319Z,185
2016-11-03T12:11:15.290Z,185
2016-11-03T12:12:15.554Z,185
2016-11-03T12:13:14.917Z,185
2016-11-03T12:14:15.172Z,180
2016-11-03T12:15:15.452Z,180
2016-11-03T12:16:15.103Z,180
2016-11-03T12:17:15.070Z,180
2016-11-03T12:18:15.030Z,180
2016-11-03T12:19:14.991Z,180
2016-11-03T12:20:14.361Z,180
2016-11-03T12:21:15.233Z,185
2016-11-03T12:22:14.915Z,185
2016-11-03T12:23:14.851Z,185
2016-11-03T12:24:14.207Z,190
2016-11-03T12:25:14.782Z,195
2016-11-03T12:26:14.448Z,195
2016-11-03T12:27:15.007Z,195
2016-11-03T12:28:14.067Z,195
2016-11-03T12:29:14.636Z,195
2016-11-03T12:30:14.907Z,200
2016-11-03T12:31:14.865Z,205
2016-11-03T12:32:14.524Z,210
2016-11-03T12:33:14.186Z,210
2016-11-03T12:34:14.453Z,220
2016-11-03T12:35:14.418Z,215
2016-11-03T12:36:14.378Z,215
2016-11-03T12:37:14.341Z,210
2016-11-03T12:38:13.744Z,210
2016-11-03T12:39:14.572Z,210
2016-11-03T12:40:14.241Z,205
2016-11-03T12:41:14.510Z,210
2016-11-03T12:42:13.897Z,215
2016-11-03T12:43:14.129Z,210
2016-11-03T12:44:14.396Z,205
2016-11-03T12:45:13.753Z,205
2016-11-03T12:46:14.324Z,205
2016-11-03T12:47:13.680Z,200
2016-11-03T12:48:13.950Z,195
2016-11-03T12:49:13.610Z,195
2016-11-03T12:50:14.177Z,195
2016-11-03T12:51:14.164Z,195
2016-11-03T12:52:13.199Z,195
2016-11-03T12:53:14.075Z,195
2016-11-03T12:54:14.030Z,195
2016-11-03T12:55:14.029Z,195
2016-11-03T12:56:13.984Z,195
2016-11-03T12:57:13.922Z,190
2016-11-03T12:58:13.284Z,190
2016-11-03T12:59:13.859Z,190
2016-11-03T13:00:13.515Z,190
2016-11-03T13:01:12.876Z,195
2016-11-03T13:02:13.442Z,190
2016-11-03T13:03:13.408Z,185
2016-11-03T13:04:13.680Z,180
2016-11-03T13:05:13.642Z,180
2016-11-03T13:06:13.302Z,175
2016-11-03T13:07:13.262Z,170
2016-11-03T13:08:13.222Z,170
2016-11-03T13:09:13.194Z,170
2016-11-03T13:10:12.853Z,165
2016-11-03T13:11:12.817Z,160
2016-11-03T13:12:12.788Z,160
2016-11-03T13:13:13.046Z,155
2016-11-03T13:14:12.707Z,160
2016-11-03T13:15:12.972Z,160
2016-11-03T13:16:12.948Z,165
2016-11-03T13:17:12.909Z,160
2016-11-03T13:18:12.900Z,165
2016-11-03T13:19:12.831Z,170
2016-11-03T13:20:13.110Z,165
2016-11-03T13:21:13.059Z,160
2016-11-03T13:22:12.772Z,155
2016-11-03T13:23:13.021Z,155
2016-11-03T13:24:12.952Z,155
2016-11-03T13:25:12.308Z,155
2016-11-03T13:26:12.281Z,150
2016-11-03T13:27:12.540Z,150
2016-11-03T13:28:11.598Z,155
2016-11-03T13:29:12.772Z,155
2016-11-03T13:30:12.135Z,155
2016-11-03T13:31:12.703Z,155
2016-11-03T13:32:12.364Z,155
2016-11-03T13:33:12.706Z,155
2016-11-03T13:34:12.288Z,160
2016-11-03T13:35:12.590Z,165
2016-11-03T13:36:12.217Z,160
2016-11-03T13:37:12.478Z,165
2016-11-03T13:38:12.446Z,165
2016-11-03T13:39:12.450Z,170
2016-11-03T13:40:12.393Z,175
2016-11-03T13:41:12.034Z,170
2016-11-03T13:42:12.309Z,175
2016-11-03T13:43:11.959Z,170
2016-11-03T13:44:11.931Z,170
2016-11-03T13:45:11.594Z,165
2016-11-03T13:46:12.150Z,165
2016-11-03T13:47:11.812Z,165
2016-11-03T13:48:12.079Z,160
2016-11-03T13:49:12.044Z,155
2016-11-03T13:50:12.006Z,155
2016-11-03T13:51:11.976Z,155
2016-11-03T13:52:11.638Z,155
2016-11-03T13:53:11.918Z,155
2016-11-03T13:54:11.869Z,160
2016-11-03T13:55:11.834Z,160
2016-11-03T13:56:11.803Z,155
2016-11-03T13:57:11.453Z,150
2016-11-03T13:58:11.748Z,145
2016-11-03T13:59:11.099Z,140
2016-11-03T14:00:11.647Z,140
2016-11-03T14:01:11.016Z,140
2016-11-03T14:02:11.277Z,135
2016-11-03T14:03:11.244Z,135
2016-11-03T14:04:11.518Z,135
2016-11-03T14:05:10.866Z,135
2016-11-03T14:06:11.125Z,130
2016-11-03T14:07:11.391Z,130
2016-11-03T14:08:10.789Z,130
2016-11-03T14:09:11.320Z,130